GCC Virtual Airport Information Service

Dallas Love Field Airport

ICAO: KDAL Country: US
Latitude: 32.8481 Longitude: 96.8512
Latest Arrival : (-) Latest Departure : (-)


WX CaptureLIVE
Data provided by noaa.gov | Fetched at 13:34:34

METAR : KDAL 051253Z 15012KT 10SM BKN016 13/09 A2989 RMK AO2 SLP118 T01330089

TAF : KDAL 051135Z 0512/0612 16012KT P6SM SCT015 TEMPO 0512/0514 BKN015 FM051700 18009KT P6SM SCT080 FM052000 03008KT P6SM SCT060 FM052300 02015KT P6SM BKN023 FM060800 03011KT P6SM SCT026 BKN050


Runway Data for KDAL
Data provided by openaviationdata.com

Runway ID Mag Var Hdg Length Elevation Surface ILS Freq ILS Id ILS Slope
13L 6 129° 7755 ft 487 ft Concrete 111.5 IDAL 3
13R 6 129° 8804 ft 487 ft Concrete 111.1 IDPX 3
18 6 179° 6158 ft 487 ft Asphalt -- -- --
31L 6 309° 8804 ft 487 ft Concrete 111.1 ILVF 3
31R 6 309° 7755 ft 487 ft Concrete 111.5 IOVW 3
36 6 359° 6158 ft 487 ft Asphalt -- -- --

Dallas Love Field Airport, US
Use only for reference purposes



Not for navigational purposes.